createdAt,value
2023-02-13T00:01:13.206Z,-4.17
2023-02-13T00:04:16.207Z,-4.25
2023-02-13T00:07:18.969Z,-4.13
2023-02-13T00:10:22.198Z,-4.12
2023-02-13T00:13:24.863Z,-3.92
2023-02-13T00:16:27.767Z,-3.84
2023-02-13T00:19:30.599Z,-3.80
2023-02-13T00:22:37.499Z,-3.82
2023-02-13T00:25:40.290Z,-3.83
2023-02-13T00:28:43.660Z,-3.92
2023-02-13T00:31:46.648Z,-4.01
2023-02-13T00:34:50.196Z,-4.03
2023-02-13T00:37:52.984Z,-4.13
2023-02-13T00:41:02.641Z,-4.17
2023-02-13T00:44:05.631Z,-4.17
2023-02-13T00:47:08.674Z,-4.20
2023-02-13T00:50:11.344Z,-4.17
2023-02-13T00:53:14.420Z,-4.15
2023-02-13T00:56:17.460Z,-4.11
2023-02-13T00:59:20.742Z,-4.17
2023-02-13T01:02:23.465Z,-4.04
2023-02-13T01:05:28.508Z,-4.01
2023-02-13T01:08:31.243Z,-3.95
2023-02-13T01:11:34.313Z,-3.92
2023-02-13T01:14:37.232Z,-4.05
2023-02-13T01:17:40.303Z,-3.87
2023-02-13T01:20:46.520Z,-3.81
2023-02-13T01:23:50.181Z,-3.83
2023-02-13T01:26:54.059Z,-3.83
2023-02-13T01:29:57.250Z,-3.83
2023-02-13T01:33:00.336Z,-4.02
2023-02-13T01:36:09.017Z,-4.11
2023-02-13T01:39:13.392Z,-3.90
2023-02-13T01:42:21.887Z,-3.82
2023-02-13T01:45:30.416Z,-3.79
2023-02-13T01:48:35.769Z,-3.80
2023-02-13T01:51:40.265Z,-3.80
2023-02-13T01:54:44.167Z,-3.82
2023-02-13T01:57:54.694Z,-3.74
2023-02-13T02:00:59.218Z,-3.70
2023-02-13T02:04:13.052Z,-3.67
2023-02-13T02:07:30.039Z,-3.72
2023-02-13T02:10:35.208Z,-3.58
2023-02-13T02:13:40.343Z,-3.62
2023-02-13T02:16:44.142Z,-3.64
2023-02-13T02:19:55.932Z,-3.63
2023-02-13T02:23:40.854Z,-3.76
2023-02-13T02:27:02.160Z,-3.82
2023-02-13T02:30:24.531Z,-3.87
2023-02-13T02:33:53.825Z,-4.00
2023-02-13T02:37:20.943Z,-4.12
2023-02-13T02:40:35.914Z,-4.09
2023-02-13T02:44:15.701Z,-4.14
2023-02-13T02:48:00.306Z,-4.21
2023-02-13T02:51:22.325Z,-4.30
2023-02-13T02:55:04.113Z,-4.35
2023-02-13T02:58:49.016Z,-4.46
2023-02-13T03:02:13.259Z,-4.32
2023-02-13T03:05:41.215Z,-4.35
2023-02-13T03:09:10.927Z,-4.34
2023-02-13T03:12:38.777Z,-4.41
2023-02-13T03:16:02.623Z,-4.47
2023-02-13T03:19:24.553Z,-4.51
2023-02-13T03:23:02.979Z,-4.52
2023-02-13T03:26:33.379Z,-4.51
2023-02-13T03:30:02.048Z,-4.53
2023-02-13T03:33:44.328Z,-4.69
2023-02-13T03:37:11.506Z,-4.58
2023-02-13T03:40:24.166Z,-4.59
2023-02-13T03:43:29.957Z,-4.64
2023-02-13T03:46:38.410Z,-4.54
2023-02-13T03:50:05.400Z,-4.54
2023-02-13T03:53:13.032Z,-4.55
2023-02-13T03:56:37.669Z,-4.53
2023-02-13T03:59:41.282Z,-4.46
2023-02-13T04:02:57.239Z,-4.38
2023-02-13T04:06:31.871Z,-4.37
2023-02-13T04:09:38.891Z,-4.52
2023-02-13T04:13:02.920Z,-4.36
2023-02-13T04:16:23.586Z,-4.32
2023-02-13T04:19:27.434Z,-4.55
2023-02-13T04:22:30.109Z,-4.48
2023-02-13T04:25:33.613Z,-4.60
2023-02-13T04:28:36.495Z,-4.76
2023-02-13T04:31:40.579Z,-4.66
2023-02-13T04:34:43.448Z,-4.66
2023-02-13T04:37:46.377Z,-4.70
2023-02-13T04:40:49.082Z,-4.70
2023-02-13T04:43:52.534Z,-4.74
2023-02-13T04:46:55.366Z,-4.71
2023-02-13T04:49:58.393Z,-4.70
2023-02-13T04:53:01.080Z,-4.77
2023-02-13T04:56:04.943Z,-4.69
2023-02-13T04:59:07.592Z,-4.60
2023-02-13T05:02:10.567Z,-4.56
2023-02-13T05:05:13.265Z,-4.45
2023-02-13T05:08:16.817Z,-4.48
2023-02-13T05:11:19.537Z,-4.62
2023-02-13T05:14:22.535Z,-4.53
2023-02-13T05:17:27.975Z,-4.31
2023-02-13T05:20:31.402Z,-4.06
2023-02-13T05:23:34.090Z,-4.14
2023-02-13T05:26:37.046Z,-4.29
2023-02-13T05:29:39.996Z,-4.36
2023-02-13T05:32:43.331Z,-4.37
2023-02-13T05:35:45.998Z,-4.15
2023-02-13T05:38:49.008Z,-3.88
2023-02-13T05:41:51.743Z,-3.81
2023-02-13T05:44:54.702Z,-3.79
2023-02-13T05:47:57.391Z,-3.82
2023-02-13T05:51:00.750Z,-3.30
2023-02-13T05:54:04.047Z,-3.36
2023-02-13T05:57:07.123Z,-3.38
2023-02-13T06:00:10.396Z,-3.31
2023-02-13T06:03:13.549Z,-3.36
2023-02-13T06:06:16.842Z,-3.57
2023-02-13T06:09:19.904Z,-3.26
2023-02-13T06:12:22.664Z,-3.16
2023-02-13T06:15:25.794Z,-3.13
2023-02-13T06:18:28.553Z,-3.18
2023-02-13T06:21:33.419Z,-2.77
2023-02-13T06:24:36.098Z,-2.75
2023-02-13T06:27:39.094Z,-2.42
2023-02-13T06:30:41.997Z,-2.20
2023-02-13T06:33:45.123Z,-1.14
2023-02-13T06:36:47.836Z,1.10
2023-02-13T06:39:51.106Z,2.37
2023-02-13T06:42:53.903Z,3.66
2023-02-13T06:45:57.004Z,4.28
2023-02-13T06:48:59.774Z,5.13
2023-02-13T06:52:02.818Z,5.82
2023-02-13T06:55:05.984Z,6.49
2023-02-13T06:58:08.979Z,7.26
2023-02-13T07:01:11.999Z,7.79
2023-02-13T07:04:15.408Z,7.67
2023-02-13T07:07:18.016Z,8.53
2023-02-13T07:10:20.993Z,8.87
2023-02-13T07:13:23.731Z,9.48
2023-02-13T07:16:26.881Z,9.75
2023-02-13T07:19:29.732Z,10.24
2023-02-13T07:22:33.353Z,10.68
2023-02-13T07:25:36.143Z,11.05
2023-02-13T07:28:39.292Z,11.50
2023-02-13T07:31:42.218Z,12.12
2023-02-13T07:35:00.657Z,12.18
2023-02-13T07:38:05.187Z,12.51
2023-02-13T07:41:08.974Z,12.38
2023-02-13T07:44:11.777Z,13.08
2023-02-13T07:47:14.796Z,13.54
2023-02-13T07:50:17.712Z,14.30
2023-02-13T07:53:21.196Z,15.02
2023-02-13T07:56:23.919Z,16.52
2023-02-13T07:59:27.099Z,17.36
2023-02-13T08:02:29.776Z,17.85
2023-02-13T08:05:33.804Z,17.58
2023-02-13T08:08:38.448Z,17.58
2023-02-13T08:11:53.810Z,18.22
2023-02-13T08:14:56.519Z,17.96
2023-02-13T08:17:59.562Z,17.56
2023-02-13T08:21:03.313Z,18.51
2023-02-13T08:24:06.789Z,19.07
2023-02-13T08:27:14.118Z,17.87
2023-02-13T08:30:17.197Z,18.13
2023-02-13T08:33:20.057Z,18.88
2023-02-13T08:36:23.762Z,19.30
2023-02-13T08:39:26.600Z,19.61
2023-02-13T08:42:29.550Z,20.14
2023-02-13T08:45:33.104Z,19.78
2023-02-13T08:48:36.639Z,13.79
2023-02-13T08:51:39.474Z,10.32
2023-02-13T08:54:42.377Z,8.38
2023-02-13T08:57:45.065Z,8.23
2023-02-13T09:00:48.159Z,7.85
2023-02-13T09:03:50.969Z,7.51
2023-02-13T09:06:54.001Z,7.59
2023-02-13T09:09:56.711Z,7.57
2023-02-13T09:13:01.395Z,7.49
2023-02-13T09:16:07.071Z,7.91
2023-02-13T09:19:10.299Z,8.20
2023-02-13T09:22:13.157Z,8.07
2023-02-13T09:25:16.165Z,8.25
2023-02-13T09:28:18.824Z,8.48
2023-02-13T09:31:24.315Z,8.73
2023-02-13T09:34:27.167Z,9.12
2023-02-13T09:37:30.167Z,9.17
2023-02-13T09:40:53.551Z,9.26
2023-02-13T09:44:34.857Z,8.96
2023-02-13T09:47:42.796Z,9.03
2023-02-13T09:50:45.909Z,8.96
2023-02-13T09:54:12.980Z,9.07
2023-02-13T09:57:19.376Z,8.68
2023-02-13T10:00:43.129Z,8.50
2023-02-13T10:03:57.302Z,8.70
2023-02-13T10:07:22.642Z,8.71
2023-02-13T10:10:34.686Z,8.68
2023-02-13T10:13:58.950Z,9.19
2023-02-13T10:17:11.736Z,9.14
2023-02-13T10:20:43.384Z,8.90
2023-02-13T10:24:01.082Z,9.09
2023-02-13T10:27:45.174Z,8.69
2023-02-13T10:30:56.433Z,9.12
2023-02-13T10:34:03.637Z,9.35
2023-02-13T10:37:18.190Z,9.44
2023-02-13T10:40:21.194Z,10.20
2023-02-13T10:43:28.961Z,9.95
2023-02-13T10:47:00.936Z,9.77
2023-02-13T10:50:25.020Z,9.60
2023-02-13T10:53:50.099Z,9.77
2023-02-13T10:56:59.151Z,9.07
2023-02-13T11:00:10.674Z,9.26
2023-02-13T11:03:20.282Z,9.31
2023-02-13T11:06:23.089Z,8.88
2023-02-13T11:09:27.402Z,8.77
2023-02-13T11:12:33.302Z,8.74
2023-02-13T11:15:37.239Z,8.63
2023-02-13T11:18:44.329Z,8.83
2023-02-13T11:21:48.781Z,8.68
2023-02-13T11:24:56.303Z,8.51
2023-02-13T11:28:17.642Z,8.48
2023-02-13T11:31:32.746Z,8.51
2023-02-13T11:34:35.860Z,8.42
2023-02-13T11:37:38.544Z,8.52
2023-02-13T11:40:47.854Z,8.92
2023-02-13T11:44:01.197Z,9.26
2023-02-13T11:47:04.398Z,9.00
2023-02-13T11:50:23.081Z,8.72
2023-02-13T11:53:30.592Z,8.22
2023-02-13T11:57:04.065Z,8.01
2023-02-13T12:00:31.132Z,8.05
2023-02-13T12:03:34.291Z,7.80
2023-02-13T12:06:40.155Z,7.68
2023-02-13T12:09:46.596Z,7.73
2023-02-13T12:12:53.422Z,7.69
2023-02-13T12:16:02.675Z,7.77
2023-02-13T12:19:14.032Z,7.69
2023-02-13T12:22:28.694Z,7.74
2023-02-13T12:25:53.204Z,7.79
2023-02-13T12:29:18.001Z,7.88
2023-02-13T12:32:28.866Z,8.00
2023-02-13T12:35:40.474Z,8.04
2023-02-13T12:39:03.712Z,7.97
2023-02-13T12:42:31.080Z,8.12
2023-02-13T12:46:04.282Z,7.87
2023-02-13T12:49:17.590Z,7.81
2023-02-13T12:52:20.286Z,7.81
2023-02-13T12:55:26.092Z,7.83
2023-02-13T12:58:56.362Z,7.98
2023-02-13T13:02:34.629Z,7.81
2023-02-13T13:06:14.879Z,7.72
2023-02-13T13:09:34.423Z,7.70
2023-02-13T13:13:07.243Z,7.55
2023-02-13T13:16:24.878Z,7.58
2023-02-13T13:19:41.350Z,7.42
2023-02-13T13:22:55.033Z,7.17
2023-02-13T13:26:26.957Z,7.03
2023-02-13T13:29:38.821Z,7.01
2023-02-13T13:32:43.198Z,6.95
2023-02-13T13:36:12.553Z,6.94
2023-02-13T13:39:26.719Z,6.90
2023-02-13T13:42:34.204Z,6.91
2023-02-13T13:45:43.079Z,6.85
2023-02-13T13:49:14.303Z,6.71
2023-02-13T13:52:25.935Z,6.73
2023-02-13T13:55:46.820Z,6.71
2023-02-13T13:58:51.192Z,6.55
2023-02-13T14:02:17.136Z,6.62
2023-02-13T14:05:28.134Z,6.55
2023-02-13T14:08:53.708Z,6.53
2023-02-13T14:11:58.525Z,6.51
2023-02-13T14:15:01.219Z,6.47
2023-02-13T14:18:23.936Z,6.32
2023-02-13T14:21:26.841Z,6.27
2023-02-13T14:24:30.126Z,6.22
2023-02-13T14:27:40.903Z,6.21
2023-02-13T14:30:44.142Z,6.18
2023-02-13T14:33:47.117Z,6.14
2023-02-13T14:37:07.740Z,6.08
2023-02-13T14:40:17.509Z,6.00
2023-02-13T14:43:51.389Z,5.96
2023-02-13T14:46:55.404Z,5.93
2023-02-13T14:50:01.644Z,5.93
2023-02-13T14:53:15.661Z,5.90
2023-02-13T14:56:22.724Z,5.90
2023-02-13T14:59:32.688Z,5.87
2023-02-13T15:02:44.626Z,5.85
2023-02-13T15:05:52.921Z,5.74
2023-02-13T15:08:59.490Z,5.84
2023-02-13T15:12:26.801Z,5.63
2023-02-13T15:15:34.569Z,5.75
2023-02-13T15:18:47.951Z,5.73
2023-02-13T15:21:54.476Z,5.71
2023-02-13T15:24:58.137Z,5.70
2023-02-13T15:28:04.151Z,5.66
2023-02-13T15:31:21.686Z,5.59
2023-02-13T15:34:34.430Z,5.55
2023-02-13T15:37:37.138Z,5.58
2023-02-13T15:40:41.836Z,5.58
2023-02-13T15:43:48.026Z,5.55
2023-02-13T15:46:53.520Z,5.51
2023-02-13T15:49:56.717Z,5.50
2023-02-13T15:53:02.909Z,5.44
2023-02-13T15:56:05.962Z,5.37
2023-02-13T15:59:10.273Z,5.35
2023-02-13T16:02:19.775Z,5.32
2023-02-13T16:05:38.935Z,5.16
2023-02-13T16:08:57.768Z,5.12
2023-02-13T16:12:07.208Z,4.81
2023-02-13T16:15:20.255Z,4.45
2023-02-13T16:18:23.340Z,4.21
2023-02-13T16:21:31.312Z,4.01
2023-02-13T16:24:35.966Z,3.78
2023-02-13T16:27:46.273Z,3.54
2023-02-13T16:31:02.846Z,3.33
2023-02-13T16:34:30.384Z,3.13
2023-02-13T16:37:34.335Z,2.95
2023-02-13T16:40:43.924Z,2.72
2023-02-13T16:43:52.827Z,2.53
2023-02-13T16:46:58.286Z,2.37
2023-02-13T16:50:02.265Z,2.06
2023-02-13T16:53:05.207Z,2.07
2023-02-13T16:56:11.157Z,1.86
2023-02-13T16:59:26.465Z,1.71
2023-02-13T17:02:29.660Z,1.56
2023-02-13T17:05:32.424Z,1.45
2023-02-13T17:08:35.648Z,1.89
2023-02-13T17:11:39.386Z,1.99
2023-02-13T17:14:42.957Z,2.33
2023-02-13T17:17:46.924Z,2.49
2023-02-13T17:20:50.268Z,2.67
2023-02-13T17:23:53.284Z,2.76
2023-02-13T17:26:57.549Z,2.96
2023-02-13T17:30:01.196Z,3.01
2023-02-13T17:33:10.595Z,3.07
2023-02-13T17:36:15.140Z,3.10
2023-02-13T17:39:19.066Z,3.16
2023-02-13T17:42:28.568Z,3.24
2023-02-13T17:45:33.928Z,3.25
2023-02-13T17:48:36.970Z,3.30
2023-02-13T17:51:41.430Z,3.39
2023-02-13T17:54:45.636Z,3.55
2023-02-13T17:57:49.537Z,3.64
2023-02-13T18:00:52.660Z,3.68
2023-02-13T18:03:55.975Z,3.67
2023-02-13T18:06:59.479Z,3.69
2023-02-13T18:10:02.858Z,3.69
2023-02-13T18:13:05.964Z,3.72
2023-02-13T18:16:09.981Z,3.76
2023-02-13T18:19:14.069Z,3.78
2023-02-13T18:22:17.542Z,3.76
2023-02-13T18:25:21.421Z,3.77
2023-02-13T18:28:24.837Z,3.76
2023-02-13T18:31:28.049Z,3.71
2023-02-13T18:34:32.077Z,3.69
2023-02-13T18:37:36.026Z,3.65
2023-02-13T18:40:39.527Z,3.65
2023-02-13T18:43:42.449Z,3.61
2023-02-13T18:46:45.796Z,3.59
2023-02-13T18:49:48.800Z,3.57
2023-02-13T18:52:52.396Z,3.49
2023-02-13T18:56:06.393Z,3.37
2023-02-13T18:59:09.639Z,3.40
2023-02-13T19:02:12.922Z,3.35
2023-02-13T19:05:16.046Z,3.25
2023-02-13T19:08:19.272Z,3.17
2023-02-13T19:11:24.807Z,3.13
2023-02-13T19:14:27.881Z,3.03
2023-02-13T19:17:30.992Z,2.97
2023-02-13T19:20:33.680Z,2.95
2023-02-13T19:23:38.217Z,2.90
2023-02-13T19:26:42.293Z,2.71
2023-02-13T19:29:47.108Z,2.70
2023-02-13T19:32:50.216Z,2.74
2023-02-13T19:35:58.253Z,2.71
2023-02-13T19:39:04.524Z,2.72
2023-02-13T19:42:07.656Z,2.70
2023-02-13T19:45:10.916Z,2.75
2023-02-13T19:48:14.141Z,2.67
2023-02-13T19:51:20.964Z,2.72
2023-02-13T19:54:24.638Z,2.69
2023-02-13T19:57:28.218Z,2.69
2023-02-13T20:00:31.956Z,2.71
2023-02-13T20:03:35.591Z,2.71
2023-02-13T20:06:38.600Z,2.72
2023-02-13T20:09:42.036Z,2.72
2023-02-13T20:12:45.130Z,2.67
2023-02-13T20:15:48.494Z,2.65
2023-02-13T20:18:53.029Z,2.71
2023-02-13T20:21:56.580Z,2.75
2023-02-13T20:24:59.563Z,2.67
2023-02-13T20:28:02.878Z,2.60
2023-02-13T20:31:14.051Z,2.65
2023-02-13T20:34:17.109Z,2.66
2023-02-13T20:37:20.106Z,2.84
2023-02-13T20:40:23.502Z,2.87
2023-02-13T20:43:26.692Z,2.88
2023-02-13T20:46:31.901Z,2.82
2023-02-13T20:49:34.597Z,2.88
2023-02-13T20:52:38.488Z,2.89
2023-02-13T20:55:41.634Z,2.84
2023-02-13T20:58:47.150Z,2.89
2023-02-13T21:01:50.414Z,2.86
2023-02-13T21:04:53.632Z,2.86
2023-02-13T21:07:56.624Z,2.88
2023-02-13T21:11:04.105Z,2.99
2023-02-13T21:14:07.507Z,2.92
2023-02-13T21:17:10.811Z,2.92
2023-02-13T21:20:14.006Z,2.86
2023-02-13T21:23:17.300Z,2.77
2023-02-13T21:26:20.643Z,2.78
2023-02-13T21:29:23.892Z,2.87
2023-02-13T21:32:26.899Z,2.87
2023-02-13T21:35:29.912Z,2.75
2023-02-13T21:38:33.110Z,2.72
2023-02-13T21:41:39.362Z,2.73
2023-02-13T21:44:42.165Z,2.74
2023-02-13T21:47:45.730Z,2.68
2023-02-13T21:50:48.513Z,2.58
2023-02-13T21:53:52.921Z,2.57
2023-02-13T21:56:55.629Z,2.66
2023-02-13T21:59:58.701Z,2.57
2023-02-13T22:03:01.435Z,2.66
2023-02-13T22:06:04.748Z,2.61
2023-02-13T22:09:10.459Z,2.57
2023-02-13T22:12:13.580Z,2.61
2023-02-13T22:15:16.345Z,2.62
2023-02-13T22:18:19.306Z,2.77
2023-02-13T22:21:24.018Z,2.72
2023-02-13T22:24:27.867Z,2.61
2023-02-13T22:27:30.511Z,2.81
2023-02-13T22:30:33.640Z,2.81
2023-02-13T22:33:36.849Z,2.77
2023-02-13T22:36:40.370Z,2.80
2023-02-13T22:39:43.123Z,2.73
2023-02-13T22:42:46.031Z,2.68
2023-02-13T22:45:48.665Z,2.71
2023-02-13T22:48:52.556Z,2.83
2023-02-13T22:51:55.304Z,2.73
2023-02-13T22:54:58.375Z,2.61
2023-02-13T22:58:01.072Z,2.56
2023-02-13T23:01:11.687Z,2.27
2023-02-13T23:04:16.556Z,2.25
2023-02-13T23:07:19.888Z,1.95
2023-02-13T23:10:25.908Z,1.91
2023-02-13T23:13:28.917Z,1.91
2023-02-13T23:16:50.472Z,1.90
2023-02-13T23:19:53.460Z,1.75
2023-02-13T23:22:56.290Z,1.63
2023-02-13T23:26:04.488Z,1.65
2023-02-13T23:29:07.174Z,1.67
2023-02-13T23:32:10.344Z,1.64
2023-02-13T23:35:13.273Z,1.58
2023-02-13T23:38:16.348Z,1.69
2023-02-13T23:41:19.110Z,1.69
2023-02-13T23:44:22.154Z,1.56
2023-02-13T23:47:24.988Z,1.53
2023-02-13T23:50:28.077Z,1.38
2023-02-13T23:53:31.042Z,1.42
2023-02-13T23:56:34.121Z,1.39
2023-02-13T23:59:38.089Z,1.27
